Time;durP1;ratioP1;P1;durP2;ratioP2;P2;SDS_P1;SDS_P2;PMS_P1;PMS_P2;Temp;Humidity;BMP_temperature;BMP_pressure;BME280_temperature;BME280_humidity;BME280_pressure;Samples;Min_cycle;Max_cycle;Signal;HPM_P1;HPM_P2
2024/02/05 00:01:49;;;;;;;1.00;0.50;;;;;;;18.75;48.50;96656.75;105525;1260;61183;-46
2024/02/05 00:04:16;;;;;;;0.50;0.50;;;;;;;18.75;48.48;96653.03;105490;1259;61292;-46
2024/02/05 00:06:43;;;;;;;0.40;0.40;;;;;;;18.76;48.61;96652.58;105285;1260;74579;-46
2024/02/05 00:09:09;;;;;;;0.60;0.40;;;;;;;18.76;48.54;96655.21;105474;1259;66111;-47
2024/02/05 00:11:36;;;;;;;0.70;0.40;;;;;;;18.76;48.55;96658.79;105450;1258;72591;-46
2024/02/05 00:14:03;;;;;;;1.60;0.50;;;;;;;18.76;48.49;96653.04;105452;1260;61243;-47
2024/02/05 00:16:29;;;;;;;0.40;0.40;;;;;;;18.76;48.63;96655.52;105565;1259;61161;-47
2024/02/05 00:18:56;;;;;;;0.40;0.40;;;;;;;18.76;48.43;96652.97;105463;1254;74476;-48
2024/02/05 00:21:23;;;;;;;0.40;0.40;;;;;;;18.75;48.47;96657.23;105551;1268;65989;-48
2024/02/05 00:23:50;;;;;;;0.30;0.30;;;;;;;18.76;48.60;96652.97;105663;1255;72887;-46
2024/02/05 00:26:16;;;;;;;0.40;0.40;;;;;;;18.76;48.56;96656.23;105437;1260;61238;-46
2024/02/05 00:28:43;;;;;;;0.50;0.50;;;;;;;18.76;48.56;96650.72;105529;1255;61350;-47
2024/02/05 00:31:10;;;;;;;0.50;0.40;;;;;;;18.76;48.46;96649.02;105405;1256;74362;-48
2024/02/05 00:33:36;;;;;;;0.30;0.30;;;;;;;18.76;48.44;96643.59;105500;1261;65025;-47
2024/02/05 00:36:05;;;;;;;0.50;0.50;;;;;;;18.75;48.50;96642.66;105367;1260;72626;-47
2024/02/05 00:38:31;;;;;;;0.40;0.40;;;;;;;18.76;48.44;96641.19;105540;1260;61327;-47
2024/02/05 00:40:58;;;;;;;0.60;0.50;;;;;;;18.76;48.47;96640.71;105582;1260;61760;-46
2024/02/05 00:43:24;;;;;;;0.30;0.30;;;;;;;18.76;48.46;96639.41;105618;1260;74394;-46
2024/02/05 00:45:51;;;;;;;0.30;0.30;;;;;;;18.76;48.47;96640.26;105603;1260;66220;-46
2024/02/05 00:48:17;;;;;;;0.30;0.30;;;;;;;18.76;48.43;96633.30;105603;1259;72373;-46
2024/02/05 00:50:44;;;;;;;0.40;0.40;;;;;;;18.76;48.52;96632.67;105463;1259;61238;-46
2024/02/05 00:53:11;;;;;;;0.40;0.40;;;;;;;18.76;48.39;96628.48;105506;1259;61250;-46
2024/02/05 00:55:37;;;;;;;0.40;0.40;;;;;;;18.76;48.53;96625.07;105495;1260;74401;-46
2024/02/05 00:58:03;;;;;;;0.50;0.50;;;;;;;18.75;48.52;96626.68;105561;1260;61326;-47
2024/02/05 01:00:30;;;;;;;0.40;0.40;;;;;;;18.76;48.49;96622.98;105564;1260;72508;-44
2024/02/05 01:02:57;;;;;;;0.70;0.50;;;;;;;18.75;48.48;96618.70;105568;1260;61220;-46
2024/02/05 01:05:23;;;;;;;0.60;0.40;;;;;;;18.75;48.50;96616.39;105425;1258;61365;-46
2024/02/05 01:07:51;;;;;;;0.40;0.40;;;;;;;18.75;48.42;96614.98;105670;1254;74574;-47
2024/02/05 01:10:19;;;;;;;0.60;0.40;;;;;;;18.75;48.56;96616.38;105656;1259;66304;-47
2024/02/05 01:12:46;;;;;;;0.30;0.20;;;;;;;18.75;48.47;96616.77;105757;1260;73100;-47
2024/02/05 01:15:13;;;;;;;1.20;0.40;;;;;;;18.75;48.45;96615.30;105678;1259;61244;-47
2024/02/05 01:17:39;;;;;;;0.60;0.40;;;;;;;18.75;48.47;96610.88;105584;1256;61287;-47
2024/02/05 01:20:10;;;;;;;0.70;0.50;;;;;;;18.75;48.45;96611.10;105533;1262;74601;-47
2024/02/05 01:22:38;;;;;;;0.30;0.30;;;;;;;18.76;48.55;96612.21;105953;1255;65074;-47
2024/02/05 01:25:05;;;;;;;0.40;0.40;;;;;;;18.75;48.48;96608.64;105586;1267;71692;-46
2024/02/05 01:27:31;;;;;;;0.90;0.50;;;;;;;18.76;48.43;96604.77;105891;1261;61346;-46
2024/02/05 01:29:58;;;;;;;0.50;0.50;;;;;;;18.76;48.46;96607.09;105613;1254;61362;-47
2024/02/05 01:32:24;;;;;;;1.70;0.40;;;;;;;18.76;48.49;96602.90;105416;1254;61253;-47
2024/02/05 01:34:51;;;;;;;0.80;0.40;;;;;;;18.76;48.51;96593.69;105517;1260;65603;-46
2024/02/05 01:37:18;;;;;;;0.40;0.40;;;;;;;18.76;48.41;96592.45;105368;1258;72619;-46
2024/02/05 01:39:45;;;;;;;0.40;0.40;;;;;;;18.76;48.49;96592.14;105471;1259;61256;-46
2024/02/05 01:42:12;;;;;;;0.40;0.30;;;;;;;18.76;48.43;96594.23;105546;1255;61333;-46
2024/02/05 01:44:39;;;;;;;0.50;0.50;;;;;;;18.76;48.51;96586.40;105564;1260;74565;-46
2024/02/05 01:47:05;;;;;;;0.50;0.50;;;;;;;18.76;48.49;96586.64;105534;1262;65519;-46
2024/02/05 01:49:32;;;;;;;0.40;0.40;;;;;;;18.76;48.50;96586.33;105666;1260;72495;-46
2024/02/05 01:51:59;;;;;;;0.50;0.50;;;;;;;18.76;48.48;96588.50;105419;1267;61259;-46
2024/02/05 01:54:25;;;;;;;0.80;0.60;;;;;;;18.76;48.49;96580.82;105530;1259;61243;-46
2024/02/05 01:56:52;;;;;;;0.40;0.40;;;;;;;18.76;48.48;96581.76;105520;1259;61250;-46
2024/02/05 01:59:19;;;;;;;0.60;0.30;;;;;;;18.76;48.40;96579.80;105616;1261;66057;-45
2024/02/05 02:01:45;;;;;;;0.90;0.40;;;;;;;18.76;48.44;96572.21;105572;1254;72387;-46
2024/02/05 02:04:12;;;;;;;0.50;0.50;;;;;;;18.76;48.48;96574.78;105674;1261;61245;-46
2024/02/05 02:06:39;;;;;;;0.60;0.40;;;;;;;18.76;48.43;96568.03;105515;1254;61319;-46
2024/02/05 02:09:10;;;;;;;0.60;0.50;;;;;;;18.76;48.43;96567.42;105626;1255;74275;-46
2024/02/05 02:11:38;;;;;;;0.60;0.40;;;;;;;18.76;48.54;96562.38;105496;1259;65896;-46
2024/02/05 02:14:05;;;;;;;0.70;0.50;;;;;;;18.76;48.42;96559.89;105541;1254;72609;-46
2024/02/05 02:16:31;;;;;;;0.40;0.40;;;;;;;18.76;48.48;96557.27;105491;1259;61177;-46
2024/02/05 02:19:00;;;;;;;0.70;0.40;;;;;;;18.76;48.42;96562.68;105224;1261;61320;-46
2024/02/05 02:21:26;;;;;;;0.40;0.40;;;;;;;18.76;48.44;96554.95;105537;1256;74634;-46
2024/02/05 02:23:53;;;;;;;0.30;0.30;;;;;;;18.76;48.42;96549.81;105451;1260;65826;-46
2024/02/05 02:26:20;;;;;;;0.30;0.30;;;;;;;18.75;48.46;96547.11;105373;1254;72320;-46
2024/02/05 02:28:46;;;;;;;0.40;0.40;;;;;;;18.76;48.41;96543.93;105481;1261;61327;-46
2024/02/05 02:31:14;;;;;;;0.30;0.30;;;;;;;18.76;48.46;96538.04;105588;1254;63002;-46
2024/02/05 02:34:07;;;;;;;0.50;0.40;;;;;;;18.76;48.47;96542.94;105665;1255;74834;-45
2024/02/05 02:36:36;;;;;;;0.40;0.40;;;;;;;18.76;48.37;96539.28;105573;1260;65964;-46
2024/02/05 02:39:11;;;;;;;0.50;0.50;;;;;;;18.76;48.43;96534.09;105600;1255;72640;-46
2024/02/05 02:41:39;;;;;;;1.20;0.50;;;;;;;18.75;48.45;96532.38;105443;1260;61260;-46
2024/02/05 02:44:06;;;;;;;0.50;0.50;;;;;;;18.75;48.47;96536.71;105479;1255;61211;-45
2024/02/05 02:46:33;;;;;;;0.70;0.40;;;;;;;18.75;48.50;96536.88;105430;1254;74823;-47
2024/02/05 02:48:59;;;;;;;0.40;0.40;;;;;;;18.75;48.54;96530.98;105535;1259;65238;-47
2024/02/05 02:51:26;;;;;;;0.30;0.30;;;;;;;18.75;48.46;96524.24;105613;1254;72385;-46
2024/02/05 02:53:53;;;;;;;0.30;0.30;;;;;;;18.75;48.49;96526.48;105625;1259;61250;-47
2024/02/05 02:56:20;;;;;;;0.50;0.40;;;;;;;18.76;48.52;96528.83;105442;1254;61339;-46
2024/02/05 02:58:46;;;;;;;0.40;0.40;;;;;;;18.75;48.38;96527.73;105606;1255;61266;-46
2024/02/05 03:01:13;;;;;;;0.40;0.40;;;;;;;18.75;48.46;96527.49;105456;1260;65909;-46
2024/02/05 03:03:39;;;;;;;0.60;0.40;;;;;;;18.75;48.52;96524.02;105570;1255;72740;-46
2024/02/05 03:06:06;;;;;;;0.70;0.50;;;;;;;18.75;48.45;96520.67;105480;1261;61229;-46
2024/02/05 03:08:33;;;;;;;0.40;0.40;;;;;;;18.75;48.38;96518.90;105426;1261;61366;-46
2024/02/05 03:11:00;;;;;;;0.40;0.40;;;;;;;18.74;48.42;96518.52;105474;1259;74311;-46
2024/02/05 03:13:26;;;;;;;0.50;0.40;;;;;;;18.74;48.43;96515.27;105651;1259;65926;-46
2024/02/05 03:15:53;;;;;;;0.90;0.40;;;;;;;18.74;48.54;96512.31;105587;1254;72345;-46
2024/02/05 03:18:20;;;;;;;0.40;0.40;;;;;;;18.74;48.43;96511.15;105652;1260;61257;-46
2024/02/05 03:20:46;;;;;;;0.30;0.30;;;;;;;18.75;48.47;96510.60;105397;1254;61420;-46
2024/02/05 03:23:14;;;;;;;0.40;0.40;;;;;;;18.74;48.50;96503.17;105553;1258;74460;-46
2024/02/05 03:25:41;;;;;;;0.60;0.40;;;;;;;18.74;48.45;96500.99;105453;1259;66044;-46
2024/02/05 03:28:07;;;;;;;0.90;0.50;;;;;;;18.74;48.48;96497.67;105484;1254;72372;-46
2024/02/05 03:30:35;;;;;;;0.40;0.30;;;;;;;18.74;48.44;96503.09;105426;1259;61695;-46
2024/02/05 03:33:03;;;;;;;0.40;0.40;;;;;;;18.75;48.45;96502.31;105491;1255;61317;-46
2024/02/05 03:35:30;;;;;;;0.30;0.30;;;;;;;18.74;48.43;96498.84;105568;1260;74358;-45
2024/02/05 03:37:56;;;;;;;0.30;0.30;;;;;;;18.74;48.45;96493.56;105578;1259;65536;-45
2024/02/05 03:40:23;;;;;;;0.30;0.30;;;;;;;18.74;48.48;96485.80;105575;1254;72595;-46
2024/02/05 03:42:50;;;;;;;0.80;0.50;;;;;;;18.74;48.49;96492.55;105651;1254;61260;-45
2024/02/05 03:45:17;;;;;;;0.60;0.40;;;;;;;18.75;48.43;96497.59;105637;1254;61215;-47
2024/02/05 03:47:44;;;;;;;0.60;0.50;;;;;;;18.74;48.43;96486.89;105550;1259;74687;-46
2024/02/05 03:50:11;;;;;;;0.40;0.40;;;;;;;18.74;48.50;96484.17;105461;1260;66004;-46
2024/02/05 03:52:45;;;;;;;0.30;0.30;;;;;;;18.75;48.48;96478.60;105726;1254;73056;-47
2024/02/05 03:55:13;;;;;;;0.70;0.40;;;;;;;18.74;48.42;96482.72;105389;1258;61162;-47
2024/02/05 03:57:45;;;;;;;0.50;0.40;;;;;;;18.75;48.46;96473.17;105743;1254;61362;-48
2024/02/05 04:00:13;;;;;;;0.50;0.40;;;;;;;18.74;48.43;96472.57;105540;1254;74949;-48
2024/02/05 04:02:40;;;;;;;2.30;0.40;;;;;;;18.75;48.38;96466.35;105855;1254;66201;-47
2024/02/05 04:05:07;;;;;;;0.50;0.30;;;;;;;18.75;48.36;96467.59;105664;1254;74110;-47
2024/02/05 04:07:35;;;;;;;0.60;0.40;;;;;;;18.75;48.48;96459.55;105798;1257;61099;-46
2024/02/05 04:10:02;;;;;;;0.40;0.40;;;;;;;18.75;48.40;96464.40;105586;1255;61318;-48
2024/02/05 04:12:29;;;;;;;0.70;0.40;;;;;;;18.75;48.42;96454.81;106015;1254;74452;-46
2024/02/05 04:14:56;;;;;;;0.40;0.40;;;;;;;18.75;48.43;96451.40;105494;1254;65684;-48
2024/02/05 04:17:23;;;;;;;0.80;0.50;;;;;;;18.75;48.35;96446.98;105418;1254;72577;-46
2024/02/05 04:19:50;;;;;;;0.70;0.50;;;;;;;18.75;48.38;96440.95;105623;1260;61231;-46
2024/02/05 04:22:17;;;;;;;0.40;0.40;;;;;;;18.75;48.39;96432.58;106244;1254;61329;-45
2024/02/05 04:24:44;;;;;;;1.40;0.50;;;;;;;18.75;48.38;96437.38;105481;1254;74574;-46
2024/02/05 04:27:10;;;;;;;0.60;0.40;;;;;;;18.75;48.48;96433.12;106161;1260;65452;-47
2024/02/05 04:29:37;;;;;;;0.30;0.30;;;;;;;18.75;48.50;96429.46;105422;1257;72554;-47
2024/02/05 04:32:05;;;;;;;0.50;0.40;;;;;;;18.76;48.38;96429.55;105521;1261;61238;-48
2024/02/05 04:34:31;;;;;;;0.30;0.30;;;;;;;18.76;48.43;96425.22;105649;1259;61272;-47
2024/02/05 04:36:58;;;;;;;0.60;0.30;;;;;;;18.76;48.47;96420.41;105551;1259;74375;-45
2024/02/05 04:39:25;;;;;;;0.40;0.40;;;;;;;18.75;48.37;96418.94;105401;1260;65833;-45
2024/02/05 04:41:51;;;;;;;0.40;0.30;;;;;;;18.76;48.39;96407.86;105345;1255;72494;-46
2024/02/05 04:44:18;;;;;;;0.60;0.50;;;;;;;18.76;48.39;96411.81;105388;1259;61237;-46
2024/02/05 04:46:44;;;;;;;0.50;0.40;;;;;;;18.76;48.37;96411.05;105510;1259;61251;-46
2024/02/05 04:49:11;;;;;;;0.30;0.30;;;;;;;18.75;48.40;96411.65;105557;1254;74440;-46
2024/02/05 04:51:38;;;;;;;0.60;0.50;;;;;;;18.75;48.38;96406.85;105582;1259;65970;-48
2024/02/05 04:54:05;;;;;;;0.40;0.40;;;;;;;18.75;48.49;96402.36;105431;1254;72424;-47
2024/02/05 04:56:32;;;;;;;0.50;0.50;;;;;;;18.76;48.42;96395.39;105421;1259;61289;-47
2024/02/05 04:58:59;;;;;;;0.30;0.30;;;;;;;18.75;48.39;96398.64;105596;1254;61340;-46
2024/02/05 05:01:25;;;;;;;0.40;0.40;;;;;;;18.75;48.48;96401.98;105623;1254;74365;-46
2024/02/05 05:03:52;;;;;;;0.30;0.30;;;;;;;18.75;48.40;96403.20;105570;1259;66082;-46
2024/02/05 05:06:19;;;;;;;0.80;0.40;;;;;;;18.75;48.42;96392.73;105467;1254;73178;-46
2024/02/05 05:08:45;;;;;;;0.70;0.40;;;;;;;18.75;48.37;96388.33;105535;1257;63775;-46
2024/02/05 05:11:25;;;;;;;0.40;0.40;;;;;;;18.75;48.45;96377.95;105589;1254;61242;-46
2024/02/05 05:13:51;;;;;;;0.30;0.30;;;;;;;18.75;48.52;96375.08;105587;1254;74610;-46
2024/02/05 05:16:19;;;;;;;0.70;0.60;;;;;;;18.75;48.42;96363.67;105599;1258;66299;-46
2024/02/05 05:18:46;;;;;;;0.50;0.40;;;;;;;18.75;48.38;96363.91;105680;1254;72568;-46
2024/02/05 05:21:13;;;;;;;0.50;0.40;;;;;;;18.75;48.52;96351.98;105593;1259;61199;-47
2024/02/05 05:23:42;;;;;;;0.30;0.30;;;;;;;18.75;48.46;96347.95;105537;1254;61205;-45
2024/02/05 05:26:09;;;;;;;0.40;0.30;;;;;;;18.75;48.46;96350.20;105624;1260;74558;-46
2024/02/05 05:28:39;;;;;;;0.40;0.40;;;;;;;18.75;48.42;96346.09;105620;1259;66016;-47
2024/02/05 05:31:06;;;;;;;0.60;0.40;;;;;;;18.75;48.42;96345.80;105544;1254;72396;-46
2024/02/05 05:33:33;;;;;;;0.40;0.40;;;;;;;18.74;48.51;96351.52;105653;1259;61358;-46
2024/02/05 05:36:00;;;;;;;0.60;0.40;;;;;;;18.74;48.44;96347.57;105572;1254;61381;-46
2024/02/05 05:38:27;;;;;;;0.30;0.30;;;;;;;18.75;48.48;96345.48;105533;1260;74396;-46
2024/02/05 05:40:54;;;;;;;0.60;0.40;;;;;;;18.75;48.38;96347.80;105695;1259;65812;-46
2024/02/05 05:43:21;;;;;;;0.60;0.40;;;;;;;18.75;48.43;96342.60;105535;1258;72997;-47
2024/02/05 05:45:48;;;;;;;0.60;0.40;;;;;;;18.75;48.40;96339.73;105403;1260;61234;-48
2024/02/05 05:48:14;;;;;;;0.50;0.40;;;;;;;18.75;48.39;96336.34;105489;1259;61332;-47
2024/02/05 05:50:41;;;;;;;0.30;0.30;;;;;;;18.74;48.51;96337.11;105589;1254;74623;-46
2024/02/05 05:53:08;;;;;;;0.90;0.40;;;;;;;18.75;48.47;96332.84;105679;1258;65130;-46
2024/02/05 05:55:35;;;;;;;0.30;0.30;;;;;;;18.75;48.47;96339.51;105403;1254;72614;-46
2024/02/05 05:58:01;;;;;;;0.40;0.40;;;;;;;18.74;48.43;96339.59;105477;1254;61215;-47
2024/02/05 06:00:28;;;;;;;0.50;0.50;;;;;;;18.75;48.47;96340.98;105432;1254;61285;-46
2024/02/05 06:02:56;;;;;;;0.60;0.50;;;;;;;18.74;48.44;96343.23;105660;1254;74639;-46
2024/02/05 06:05:23;;;;;;;0.30;0.30;;;;;;;18.74;48.46;96338.58;105666;1260;66239;-46
2024/02/05 06:07:49;;;;;;;0.40;0.40;;;;;;;18.74;48.48;96339.60;105584;1258;72712;-46
2024/02/05 06:10:16;;;;;;;0.90;0.40;;;;;;;18.75;48.40;96345.08;105321;1261;61148;-45
2024/02/05 06:12:44;;;;;;;0.40;0.40;;;;;;;18.76;48.62;96349.59;105276;1257;61188;-47
2024/02/05 06:15:12;;;;;;;0.40;0.30;;;;;;;18.76;48.93;96346.73;105401;1260;74600;-48
2024/02/05 06:17:39;;;;;;;1.40;0.30;;;;;;;18.78;48.87;96353.25;105750;1257;66187;-48
2024/02/05 06:20:07;;;;;;;2.40;0.50;;;;;;;18.79;48.92;96351.39;105430;1256;72661;-46
